createdAt,value
2023-05-10T00:10:50.395Z,8.42
2023-05-10T00:25:52.106Z,8.35
2023-05-10T00:40:53.759Z,8.30
2023-05-10T00:55:55.662Z,8.25
2023-05-10T01:10:58.104Z,8.15
2023-05-10T01:26:33.850Z,8.07
2023-05-10T01:41:41.970Z,8.02
2023-05-10T01:56:46.732Z,7.96
2023-05-10T02:11:50.171Z,7.76
2023-05-10T02:26:54.761Z,7.55
2023-05-10T02:41:58.059Z,7.08
2023-05-10T02:57:01.701Z,6.85
2023-05-10T03:12:41.750Z,6.73
2023-05-10T03:27:45.256Z,6.74
2023-05-10T03:42:46.984Z,6.83
2023-05-10T03:57:50.642Z,6.80
2023-05-10T04:12:52.505Z,6.84
2023-05-10T04:27:54.418Z,6.82
2023-05-10T04:42:56.191Z,6.82
2023-05-10T04:57:58.441Z,6.96
2023-05-10T05:13:00.338Z,7.17
2023-05-10T05:28:02.696Z,7.19
2023-05-10T05:43:04.433Z,7.34
2023-05-10T05:58:06.138Z,7.25
2023-05-10T06:13:07.894Z,7.54
2023-05-10T06:28:09.627Z,7.72
2023-05-10T06:43:11.452Z,7.79
2023-05-10T06:58:13.603Z,7.89
2023-05-10T07:13:15.577Z,7.89
2023-05-10T07:28:17.416Z,7.88
2023-05-10T07:43:19.150Z,8.00
2023-05-10T07:58:21.077Z,8.16
2023-05-10T08:13:22.919Z,8.28
2023-05-10T08:28:24.682Z,8.56
2023-05-10T08:43:31.157Z,8.48
2023-05-10T08:58:33.499Z,8.60
2023-05-10T09:13:37.357Z,8.64
2023-05-10T09:28:56.634Z,8.71
2023-05-10T09:43:58.529Z,8.58
2023-05-10T09:59:04.395Z,8.90
2023-05-10T10:14:06.855Z,8.99
2023-05-10T10:29:21.569Z,9.19
2023-05-10T10:44:30.332Z,9.42
2023-05-10T10:59:32.086Z,9.31
2023-05-10T11:14:34.087Z,9.63
2023-05-10T11:29:36.179Z,9.92
2023-05-10T11:44:38.021Z,10.01
2023-05-10T11:59:41.758Z,9.90
2023-05-10T12:14:44.861Z,10.15
2023-05-10T12:29:46.634Z,10.06
2023-05-10T12:44:48.391Z,10.14
2023-05-10T12:59:50.494Z,10.10
2023-05-10T13:14:52.481Z,10.14
2023-05-10T13:29:54.267Z,10.16
2023-05-10T13:44:56.033Z,10.11
2023-05-10T13:59:58.395Z,10.08
2023-05-10T14:15:00.276Z,10.11
2023-05-10T14:30:02.161Z,10.18
2023-05-10T14:45:05.036Z,10.22
2023-05-10T15:00:07.615Z,10.14
2023-05-10T15:15:10.006Z,10.37
2023-05-10T15:30:12.090Z,10.17
2023-05-10T15:45:14.151Z,10.23
2023-05-10T16:00:16.456Z,10.14
2023-05-10T16:15:19.065Z,10.22
2023-05-10T16:30:23.659Z,10.30
2023-05-10T16:45:26.920Z,10.23
2023-05-10T17:00:28.822Z,10.32
2023-05-10T17:15:31.087Z,10.25
2023-05-10T17:30:32.952Z,10.14
2023-05-10T17:45:35.036Z,10.13
2023-05-10T18:00:36.935Z,10.20
2023-05-10T18:15:38.744Z,10.14
2023-05-10T18:30:41.359Z,10.12
2023-05-10T18:45:44.055Z,10.18
2023-05-10T19:00:45.832Z,10.29
2023-05-10T19:15:47.783Z,10.36
2023-05-10T19:30:50.389Z,10.20
2023-05-10T19:45:52.289Z,10.16
2023-05-10T20:00:53.981Z,10.10
2023-05-10T20:16:00.039Z,10.04
2023-05-10T20:31:02.161Z,10.01
2023-05-10T20:46:05.608Z,9.86
2023-05-10T21:01:07.694Z,9.81
2023-05-10T21:16:09.534Z,9.81
2023-05-10T21:31:11.812Z,9.85
2023-05-10T21:46:14.319Z,9.99
2023-05-10T22:01:17.190Z,9.95
2023-05-10T22:16:19.404Z,9.89
2023-05-10T22:31:21.588Z,9.77
2023-05-10T22:46:23.611Z,9.66
2023-05-10T23:01:25.745Z,9.63
2023-05-10T23:16:27.550Z,9.56
2023-05-10T23:31:30.247Z,9.49
2023-05-10T23:46:32.114Z,9.47
